Time;durP1;ratioP1;P1;durP2;ratioP2;P2;SDS_P1;SDS_P2;PMS_P1;PMS_P2;Temp;Humidity;BMP_temperature;BMP_pressure;BME280_temperature;BME280_humidity;BME280_pressure;Samples;Min_cycle;Max_cycle;Signal;HPM_P1;HPM_P2
2022/02/13 00:02:14;;;;;;;20.53;8.37;;;;;;;-0.78;73.15;101108.31;5073425;28;20123;-62
2022/02/13 00:04:57;;;;;;;15.68;8.38;;;;;;;-0.81;73.00;101097.19;5073306;28;20300;-62
2022/02/13 00:07:29;;;;;;;16.48;7.70;;;;;;;-0.89;72.86;101103.34;5073637;28;20049;-62
2022/02/13 00:09:58;;;;;;;17.90;8.38;;;;;;;-0.92;73.10;101101.53;5073338;28;20055;-62
2022/02/13 00:12:27;;;;;;;17.90;7.57;;;;;;;-0.91;73.32;101092.38;5073307;28;20581;-62
2022/02/13 00:14:56;;;;;;;21.95;7.93;;;;;;;-0.91;73.56;101095.72;5073882;28;20074;-62
2022/02/13 00:17:25;;;;;;;18.48;7.93;;;;;;;-0.90;73.50;101096.59;5073283;28;20056;-62
2022/02/13 00:20:14;;;;;;;21.85;8.00;;;;;;;-0.88;73.44;101085.91;5073206;28;20036;-62
2022/02/13 00:22:45;;;;;;;21.80;8.15;;;;;;;-0.99;73.47;101096.00;5073201;28;20047;-62
2022/02/13 00:25:14;;;;;;;19.50;8.65;;;;;;;-0.98;73.56;101087.69;5073206;28;20048;-62
2022/02/13 00:27:45;;;;;;;16.67;7.90;;;;;;;-0.99;73.71;101085.97;5073646;28;20040;-62
2022/02/13 00:30:16;;;;;;;20.77;7.20;;;;;;;-1.01;73.80;101087.50;5073489;28;20042;-62
2022/02/13 00:32:45;;;;;;;17.55;8.05;;;;;;;-0.95;73.54;101078.75;5073103;28;20044;-62
2022/02/13 00:35:16;;;;;;;16.83;8.20;;;;;;;-0.97;73.76;101094.44;5072839;28;20049;-62
2022/02/13 00:37:47;;;;;;;20.30;8.25;;;;;;;-1.01;73.57;101087.50;5073353;28;20548;-62
2022/02/13 00:40:18;;;;;;;15.95;7.18;;;;;;;-1.02;73.46;101090.75;5072974;28;20055;-63
2022/02/13 00:42:48;;;;;;;;;;;;;;;-1.03;73.51;101084.03;5073780;28;20067;-62
2022/02/13 00:45:17;;;;;;;16.42;6.60;;;;;;;-1.01;73.89;101082.50;5073009;28;20023;-62
2022/02/13 00:47:46;;;;;;;20.15;7.30;;;;;;;-0.98;73.71;101078.53;5072913;28;20036;-62
2022/02/13 00:50:15;;;;;;;14.02;5.50;;;;;;;-1.13;73.49;101082.53;5073270;28;20542;-62
2022/02/13 00:52:44;;;;;;;18.02;7.90;;;;;;;-1.24;73.68;101072.53;5072954;28;20043;-62
2022/02/13 00:55:14;;;;;;;12.73;5.03;;;;;;;-1.25;74.02;101075.81;5072931;28;20135;-62
2022/02/13 00:57:43;;;;;;;17.33;6.75;;;;;;;-1.27;74.09;101087.38;5073827;28;20048;-62
2022/02/13 01:00:14;;;;;;;15.75;6.95;;;;;;;-1.19;73.77;101082.09;5076359;28;20047;-62
2022/02/13 01:02:43;;;;;;;14.55;6.63;;;;;;;-1.30;73.85;101079.66;5076497;28;20116;-62
2022/02/13 01:05:12;;;;;;;17.13;6.33;;;;;;;-1.54;74.02;101078.81;5076459;28;20056;-62
2022/02/13 01:07:41;;;;;;;15.18;6.45;;;;;;;-1.60;74.13;101071.75;5076359;28;20347;-62
2022/02/13 01:10:15;;;;;;;14.65;6.70;;;;;;;-1.55;74.14;101069.56;5076889;28;20140;-62
2022/02/13 01:12:45;;;;;;;14.88;6.50;;;;;;;-1.64;74.04;101079.81;5076406;28;20557;-62
2022/02/13 01:15:15;;;;;;;16.55;6.05;;;;;;;-1.68;74.34;101069.50;5076886;28;20401;-62
2022/02/13 01:17:44;;;;;;;9.88;4.25;;;;;;;-1.78;74.06;101062.09;5076142;28;20044;-62
2022/02/13 01:20:13;;;;;;;10.77;5.27;;;;;;;-1.83;74.23;101061.78;5076042;28;20041;-63
2022/02/13 01:22:41;;;;;;;15.20;6.53;;;;;;;-1.77;74.37;101067.22;5075970;28;20286;-62
2022/02/13 01:25:10;;;;;;;15.63;6.97;;;;;;;-1.59;74.32;101068.50;5076313;28;20455;-62
2022/02/13 01:27:41;;;;;;;16.60;6.97;;;;;;;-1.60;74.22;101054.25;5076523;28;20380;-62
2022/02/13 01:30:11;;;;;;;16.35;6.05;;;;;;;-1.71;74.32;101037.63;5076281;28;20101;-62
2022/02/13 01:32:40;;;;;;;12.05;5.53;;;;;;;-1.69;73.94;101046.09;5076214;28;20048;-62
2022/02/13 01:35:10;;;;;;;13.80;6.25;;;;;;;-1.73;74.28;101044.16;5075652;28;20071;-62
2022/02/13 01:37:39;;;;;;;12.85;5.88;;;;;;;-1.72;74.34;101043.38;5076154;28;20075;-62
2022/02/13 01:40:09;;;;;;;13.63;6.28;;;;;;;-1.53;74.24;101038.00;5075780;28;20064;-62
2022/02/13 01:42:40;;;;;;;14.00;5.90;;;;;;;-1.66;73.89;101036.31;5076060;28;20141;-62
2022/02/13 01:45:13;;;;;;;13.02;5.20;;;;;;;-1.76;73.80;101038.94;5075766;28;20052;-62
2022/02/13 01:47:42;;;;;;;12.10;5.47;;;;;;;-1.78;74.08;101034.59;5075678;28;20048;-62
2022/02/13 01:50:12;;;;;;;14.63;6.38;;;;;;;-1.70;74.25;101029.34;5075563;28;20044;-62
2022/02/13 01:52:45;;;;;;;12.20;5.45;;;;;;;-1.84;74.36;101020.00;5075602;28;20044;-62
2022/02/13 01:55:13;;;;;;;15.73;5.88;;;;;;;-1.86;73.80;101016.53;5075429;28;20048;-62
2022/02/13 01:57:44;;;;;;;7.55;4.15;;;;;;;-1.95;74.27;101030.91;5075715;28;20041;-62
2022/02/13 02:00:13;;;;;;;12.98;5.80;;;;;;;-1.89;74.39;101021.31;5075379;28;20049;-62
2022/02/13 02:02:43;;;;;;;14.65;6.07;;;;;;;-1.86;74.11;101016.53;5075291;28;20052;-62
2022/02/13 02:05:12;;;;;;;10.73;5.43;;;;;;;-1.93;74.07;101014.38;5075669;28;20438;-62
2022/02/13 02:07:42;;;;;;;13.13;5.32;;;;;;;-1.96;74.55;101019.16;5075704;28;20387;-62
2022/02/13 02:10:12;;;;;;;12.20;5.65;;;;;;;-1.80;74.76;101021.94;5074797;28;20067;-62
2022/02/13 02:12:41;;;;;;;13.65;5.68;;;;;;;-1.62;74.16;101013.22;5075230;28;20057;-63
2022/02/13 02:15:11;;;;;;;12.48;5.63;;;;;;;-1.46;74.30;101016.00;5075423;28;20047;-62
2022/02/13 02:17:40;;;;;;;12.65;5.13;;;;;;;-1.44;74.21;101011.97;5075061;28;20135;-62
2022/02/13 02:20:10;;;;;;;14.67;5.33;;;;;;;-1.37;73.77;101008.25;5075068;28;20154;-62
2022/02/13 02:22:47;;;;;;;10.88;5.30;;;;;;;-1.47;73.32;101006.78;5075046;28;20482;-63
2022/02/13 02:25:17;;;;;;;14.15;4.95;;;;;;;-1.55;73.59;101009.50;5075068;28;20044;-63
2022/02/13 02:27:47;;;;;;;11.32;4.90;;;;;;;-1.60;73.30;101000.81;5075165;28;20040;-62
2022/02/13 02:30:16;;;;;;;8.20;3.53;;;;;;;-1.62;73.47;101007.34;5075259;28;20041;-63
2022/02/13 02:32:44;;;;;;;8.80;4.10;;;;;;;-1.46;73.56;101000.97;5074786;28;20343;-63
2022/02/13 02:35:13;;;;;;;11.83;4.90;;;;;;;-1.58;73.11;100995.13;5074804;28;20139;-62
2022/02/13 02:37:42;;;;;;;13.02;4.82;;;;;;;-1.69;73.04;100995.19;5075234;28;20366;-62
2022/02/13 02:40:15;;;;;;;8.17;2.87;;;;;;;-1.62;73.64;100993.22;5074645;28;20132;-63
2022/02/13 02:42:47;;;;;;;9.73;4.55;;;;;;;-1.50;73.09;100993.16;5074492;28;20040;-62
2022/02/13 02:45:16;;;;;;;9.68;4.05;;;;;;;-1.47;73.32;100995.88;5074792;28;20440;-62
2022/02/13 02:47:45;;;;;;;10.80;4.30;;;;;;;-1.42;73.15;100992.91;5074369;28;20033;-62
2022/02/13 02:50:15;;;;;;;9.03;3.90;;;;;;;-1.38;73.01;100989.84;5074386;28;20278;-62
2022/02/13 02:52:44;;;;;;;7.63;3.88;;;;;;;-1.49;72.59;100990.75;5073262;28;20036;-63
2022/02/13 02:55:13;;;;;;;7.80;3.13;;;;;;;-1.47;72.82;100983.38;5074746;28;20433;-63
2022/02/13 02:57:42;;;;;;;9.88;3.95;;;;;;;-1.48;72.55;100987.50;5074311;28;20289;-62
2022/02/13 03:00:14;;;;;;;5.82;3.33;;;;;;;-1.52;72.67;100985.56;5074230;28;20090;-62
2022/02/13 03:02:43;;;;;;;6.45;2.88;;;;;;;-1.45;72.49;100987.72;5090167;28;20063;-63
2022/02/13 03:05:12;;;;;;;7.90;3.40;;;;;;;-1.38;72.67;100989.84;5074565;28;20052;-62
2022/02/13 03:07:41;;;;;;;8.65;2.63;;;;;;;-1.27;72.13;100989.72;5074069;28;20040;-62
2022/02/13 03:10:10;;;;;;;6.27;3.40;;;;;;;-1.33;71.76;100995.16;5074824;28;20435;-62
2022/02/13 03:12:39;;;;;;;9.07;3.50;;;;;;;-1.30;71.89;100982.00;5075222;28;20369;-63
2022/02/13 03:15:09;;;;;;;8.25;3.97;;;;;;;-1.31;72.03;100987.75;5076293;28;20065;-63
2022/02/13 03:17:39;;;;;;;9.20;3.72;;;;;;;-1.28;71.54;100973.81;5074271;28;20044;-62
2022/02/13 03:20:11;;;;;;;8.57;3.38;;;;;;;-1.28;71.25;100986.34;5073911;28;20036;-62
2022/02/13 03:22:40;;;;;;;6.75;2.60;;;;;;;-1.24;71.54;100988.25;5074098;28;20051;-62
2022/02/13 03:25:10;;;;;;;8.03;3.00;;;;;;;-1.16;70.92;100981.28;5074127;28;20044;-63
2022/02/13 03:27:39;;;;;;;7.30;3.17;;;;;;;-1.28;71.13;100995.47;5074211;28;20083;-63
2022/02/13 03:30:09;;;;;;;7.00;3.13;;;;;;;-1.37;70.87;100986.56;5073937;28;20050;-62
2022/02/13 03:32:39;;;;;;;6.78;3.03;;;;;;;-1.34;70.85;100990.06;5073700;28;20486;-62
2022/02/13 03:35:08;;;;;;;8.52;3.60;;;;;;;-1.36;70.88;100984.94;5073418;28;20044;-62
2022/02/13 03:37:40;;;;;;;8.77;3.72;;;;;;;-1.36;70.99;100983.31;5074025;28;20486;-63
2022/02/13 03:40:10;;;;;;;8.10;3.35;;;;;;;-1.30;70.87;100974.47;5073954;28;20044;-62
2022/02/13 03:42:41;;;;;;;5.38;3.05;;;;;;;-1.33;70.81;100971.75;5074019;28;20044;-62
2022/02/13 03:45:10;;;;;;;10.13;3.55;;;;;;;-1.32;70.96;100973.50;5073717;28;20044;-63
2022/02/13 03:47:48;;;;;;;7.25;3.13;;;;;;;-1.41;70.46;100977.13;4595308;22;20076;-62
2022/02/13 03:50:18;;;;;;;6.90;2.75;;;;;;;-1.54;70.58;100987.09;5073868;28;20489;-63
2022/02/13 03:52:46;;;;;;;8.52;3.35;;;;;;;-1.62;70.73;100982.31;5073402;28;20040;-63
2022/02/13 03:55:16;;;;;;;9.13;3.00;;;;;;;-1.53;71.09;100978.81;5073430;28;20048;-63
2022/02/13 03:57:45;;;;;;;6.45;2.95;;;;;;;-1.36;70.84;100980.81;5073492;28;20044;-62
2022/02/13 04:00:14;;;;;;;;;;;;;;;-1.47;70.63;100980.88;5073802;28;20048;-62
2022/02/13 04:02:44;;;;;;;6.57;2.80;;;;;;;-1.51;70.39;100979.78;5073531;28;19921;-63
2022/02/13 04:05:14;;;;;;;8.38;3.05;;;;;;;-1.42;70.94;100982.03;5073664;28;20044;-63
2022/02/13 04:07:44;;;;;;;5.50;2.80;;;;;;;-1.39;70.58;100980.59;5073397;28;20059;-62
2022/02/13 04:10:15;;;;;;;7.97;3.28;;;;;;;-1.41;70.64;100973.75;5073605;28;20045;-64
2022/02/13 04:12:44;;;;;;;6.23;3.20;;;;;;;-1.46;70.29;100975.94;5073312;28;20051;-64
2022/02/13 04:15:13;;;;;;;5.60;2.78;;;;;;;-1.43;70.58;100978.66;5073201;28;20278;-64
2022/02/13 04:17:44;;;;;;;8.20;2.90;;;;;;;-1.43;70.15;100976.16;5073830;28;20052;-64
2022/02/13 04:20:13;;;;;;;7.13;3.00;;;;;;;-1.50;70.46;100974.00;5073577;28;20056;-64
2022/02/13 04:22:42;;;;;;;7.70;3.53;;;;;;;-1.59;70.25;100968.41;5073125;28;20044;-64
2022/02/13 04:25:11;;;;;;;5.50;2.83;;;;;;;-1.52;70.41;100975.56;5073067;28;20128;-63
2022/02/13 04:27:40;;;;;;;6.45;2.85;;;;;;;-1.66;70.40;100965.38;5073441;28;20370;-63
2022/02/13 04:30:11;;;;;;;6.75;2.95;;;;;;;-1.78;70.30;100955.41;5073130;28;20052;-64
2022/02/13 04:32:39;;;;;;;;;;;;;;;-1.82;70.69;100958.44;5076297;28;20090;-63
2022/02/13 04:35:10;;;;;;;9.43;2.92;;;;;;;-1.72;70.90;100960.81;5076856;28;19920;-64
2022/02/13 04:37:39;;;;;;;7.05;2.58;;;;;;;-1.80;70.47;100954.41;5059684;28;20055;-63
2022/02/13 04:40:09;;;;;;;6.65;3.08;;;;;;;-1.77;70.72;100952.13;5077142;28;20098;-63
2022/02/13 04:42:38;;;;;;;6.57;3.00;;;;;;;-1.91;70.79;100949.44;5078249;28;20500;-66
2022/02/13 04:45:10;;;;;;;7.15;3.03;;;;;;;-2.12;71.00;100937.22;5077332;28;20123;-63
2022/02/13 04:47:40;;;;;;;8.88;2.95;;;;;;;-2.07;70.99;100945.91;5076790;28;20040;-63
2022/02/13 04:50:10;;;;;;;;;;;;;;;-2.02;71.31;100948.72;5077073;28;20051;-63
2022/02/13 04:52:39;;;;;;;7.97;3.17;;;;;;;-2.07;71.28;100945.91;5076649;28;19927;-64
2022/02/13 04:55:11;;;;;;;8.60;3.00;;;;;;;-2.13;71.25;100939.59;5076855;28;20049;-64
2022/02/13 04:57:41;;;;;;;7.85;3.60;;;;;;;-2.25;71.72;100929.59;5076592;28;20044;-64
2022/02/13 05:00:10;;;;;;;7.97;2.63;;;;;;;-2.12;71.56;100936.34;5076497;28;20052;-63
2022/02/13 05:02:40;;;;;;;7.03;2.90;;;;;;;-2.18;71.12;100933.38;5076362;28;20498;-63
2022/02/13 05:05:11;;;;;;;4.30;2.25;;;;;;;-2.14;71.66;100937.88;5076338;28;20043;-63
2022/02/13 05:07:41;;;;;;;7.90;2.83;;;;;;;-2.19;71.59;100934.19;5076398;28;20052;-63
2022/02/13 05:10:09;;;;;;;;;;;;;;;-2.16;71.87;100941.91;5076746;28;20040;-64
2022/02/13 05:12:39;;;;;;;4.93;2.53;;;;;;;-2.19;71.49;100939.16;5076575;28;19955;-64
2022/02/13 05:15:09;;;;;;;8.15;2.83;;;;;;;-2.15;71.93;100936.13;5076278;28;20124;-64
2022/02/13 05:17:38;;;;;;;8.30;2.92;;;;;;;-2.27;71.78;100936.13;5076189;28;20055;-63
2022/02/13 05:20:08;;;;;;;5.80;2.85;;;;;;;-2.29;71.11;100951.78;5076091;28;20444;-63
2022/02/13 05:22:38;;;;;;;9.20;2.55;;;;;;;-2.40;71.94;100947.69;5075985;28;20053;-63
2022/02/13 05:25:08;;;;;;;5.95;2.63;;;;;;;-2.53;72.13;100937.56;5076077;28;20048;-63
2022/02/13 05:27:37;;;;;;;7.82;2.90;;;;;;;-2.29;72.07;100946.78;5076153;28;20517;-63
2022/02/13 05:30:08;;;;;;;6.28;2.92;;;;;;;-2.15;71.87;100941.13;5075975;28;20053;-63
2022/02/13 05:32:39;;;;;;;5.75;2.63;;;;;;;-1.93;71.75;100941.84;5075952;28;20053;-63
2022/02/13 05:35:09;;;;;;;3.95;2.00;;;;;;;-1.87;71.34;100941.41;5075861;28;20571;-64
2022/02/13 05:37:42;;;;;;;6.30;2.83;;;;;;;-1.86;71.06;100930.59;5058199;28;20529;-63
2022/02/13 05:40:11;;;;;;;6.05;2.40;;;;;;;-1.84;71.03;100927.44;5075824;28;20060;-63
2022/02/13 05:42:42;;;;;;;5.25;2.60;;;;;;;-1.79;70.69;100923.63;5075960;28;20114;-64
2022/02/13 05:45:11;;;;;;;6.50;2.83;;;;;;;-1.75;70.65;100929.72;5075584;28;20063;-63
2022/02/13 05:47:41;;;;;;;6.75;2.42;;;;;;;-1.83;70.29;100924.19;5075398;28;20071;-63
2022/02/13 05:50:11;;;;;;;6.65;2.90;;;;;;;-1.80;70.36;100926.88;5075939;28;20095;-64
2022/02/13 05:52:40;;;;;;;5.93;2.20;;;;;;;-1.64;70.27;100927.19;5075891;28;20035;-63
2022/02/13 05:55:10;;;;;;;3.95;2.28;;;;;;;-1.60;69.88;100926.59;5076079;28;20119;-63
2022/02/13 05:57:43;;;;;;;6.68;2.40;;;;;;;-1.61;70.21;100919.00;5075466;28;20052;-64
2022/02/13 06:00:13;;;;;;;5.80;2.55;;;;;;;-1.51;70.18;100927.22;5075458;28;20052;-63
2022/02/13 06:02:44;;;;;;;4.60;2.10;;;;;;;-1.38;69.42;100932.28;5075383;28;20047;-64
2022/02/13 06:05:16;;;;;;;4.93;2.35;;;;;;;-1.36;69.29;100928.22;5075268;28;20044;-64
2022/02/13 06:07:48;;;;;;;6.10;2.58;;;;;;;-1.39;69.31;100927.16;5075549;28;20063;-64
2022/02/13 06:10:18;;;;;;;6.38;3.60;;;;;;;-1.37;69.27;100936.50;5075527;28;20048;-64
2022/02/13 06:12:48;;;;;;;6.85;3.20;;;;;;;-1.38;69.18;100934.78;5075105;28;20048;-64
2022/02/13 06:15:18;;;;;;;7.70;4.15;;;;;;;-1.38;69.06;100927.28;5075074;28;20059;-63
2022/02/13 06:17:47;;;;;;;7.85;3.15;;;;;;;-1.39;68.76;100938.03;5074177;28;20044;-64
2022/02/13 06:20:16;;;;;;;7.33;3.47;;;;;;;-1.30;68.85;100944.44;5075161;28;20037;-63
2022/02/13 06:22:44;;;;;;;5.75;2.03;;;;;;;-1.26;68.66;100943.88;5057138;28;20049;-64
2022/02/13 06:25:24;;;;;;;5.72;2.67;;;;;;;-0.94;68.48;100946.84;5074789;28;20051;-63
2022/02/13 06:27:55;;;;;;;8.80;3.20;;;;;;;-0.65;68.02;100944.56;5074825;28;20131;-63
2022/02/13 06:30:24;;;;;;;8.20;3.60;;;;;;;-0.46;67.69;100941.59;5074712;28;20098;-63
2022/02/13 06:32:52;;;;;;;11.45;4.25;;;;;;;-0.35;67.29;100941.47;5075457;28;20029;-64
2022/02/13 06:35:34;;;;;;;9.87;4.53;;;;;;;-0.28;67.25;100951.13;5074580;28;20128;-63
2022/02/13 06:38:12;;;;;;;10.48;4.32;;;;;;;-0.35;67.07;100941.47;5074998;28;20044;-64
2022/02/13 06:40:43;;;;;;;7.75;3.83;;;;;;;-0.16;66.55;100939.34;5074564;28;20053;-63
2022/02/13 06:43:12;;;;;;;9.05;4.15;;;;;;;-0.07;66.56;100939.91;5074643;28;20041;-63
2022/02/13 06:45:41;;;;;;;9.57;3.87;;;;;;;-0.22;66.44;100936.47;5074429;28;20390;-63
2022/02/13 06:48:11;;;;;;;11.02;4.47;;;;;;;-0.28;66.01;100936.06;5074085;28;20298;-63
2022/02/13 06:50:39;;;;;;;9.23;4.13;;;;;;;-0.16;66.36;100934.31;5074645;28;20131;-63
2022/02/13 06:53:11;;;;;;;11.85;4.47;;;;;;;-0.17;66.24;100946.78;5074264;28;20044;-64
2022/02/13 06:55:42;;;;;;;10.38;5.25;;;;;;;-0.12;66.35;100941.25;5073643;28;20036;-64
2022/02/13 06:58:10;;;;;;;10.63;5.18;;;;;;;0.00;66.82;100926.94;5074400;28;20044;-64
2022/02/13 07:00:40;;;;;;;15.13;5.93;;;;;;;0.17;66.94;100929.63;5074208;28;20098;-63
2022/02/13 07:03:09;;;;;;;9.90;4.63;;;;;;;0.30;66.41;100927.06;5074448;28;20036;-63
2022/02/13 07:05:38;;;;;;;11.68;4.85;;;;;;;0.55;66.16;100935.28;5074042;28;20041;-64
2022/02/13 07:08:07;;;;;;;13.77;4.60;;;;;;;0.66;66.07;100925.09;5074282;28;20047;-63
2022/02/13 07:10:37;;;;;;;8.32;3.67;;;;;;;0.83;65.47;100926.06;5074281;28;20567;-63
2022/02/13 07:13:08;;;;;;;6.82;3.85;;;;;;;1.01;65.85;100922.06;5074047;28;20052;-63
2022/02/13 07:15:37;;;;;;;7.85;4.22;;;;;;;1.25;65.16;100923.47;5074096;28;20094;-64
2022/02/13 07:18:09;;;;;;;8.25;4.45;;;;;;;1.42;64.71;100923.56;5055940;28;20405;-64
2022/02/13 07:20:41;;;;;;;10.23;4.73;;;;;;;1.41;64.34;100917.66;5073781;28;20068;-63
2022/02/13 07:23:10;;;;;;;11.80;4.90;;;;;;;1.56;64.48;100930.22;5073813;28;20044;-64
2022/02/13 07:25:39;;;;;;;7.60;4.60;;;;;;;1.67;64.57;100921.59;5073814;28;20458;-64
2022/02/13 07:30:50;;;;;;;10.85;5.50;;;;;;;1.99;63.60;100916.66;5073986;28;20492;-64
2022/02/13 07:33:18;;;;;;;9.88;5.28;;;;;;;2.20;63.56;100907.69;5073836;28;20040;-63
2022/02/13 07:35:50;;;;;;;10.63;5.50;;;;;;;2.33;62.83;100917.59;5074290;28;20047;-63
2022/02/13 07:38:19;;;;;;;10.60;5.75;;;;;;;2.39;62.18;100917.94;5073716;28;20060;-64
2022/02/13 07:40:48;;;;;;;12.77;5.60;;;;;;;2.41;62.39;100913.84;5073907;28;20071;-63
2022/02/13 07:43:18;;;;;;;14.55;6.05;;;;;;;2.60;62.32;100915.63;5070256;28;20040;-63
2022/02/13 07:45:46;;;;;;;13.95;6.13;;;;;;;2.72;61.93;100917.13;5073248;28;20048;-65
2022/02/13 07:48:15;;;;;;;10.93;5.07;;;;;;;2.84;62.06;100916.84;5073219;28;20048;-63
2022/02/13 07:50:45;;;;;;;13.50;6.38;;;;;;;2.84;61.58;100918.50;5073716;28;20482;-63
2022/02/13 07:53:14;;;;;;;12.80;5.88;;;;;;;2.92;60.96;100903.00;5073765;28;20033;-62
2022/02/13 07:56:01;;;;;;;;;;;;;;;3.05;60.77;100922.94;5073405;28;20068;-61
2022/02/13 07:59:26;;;;;;;13.80;5.63;;;;;;;3.12;61.14;100906.47;5072498;28;19920;-62
2022/02/13 08:02:28;;;;;;;13.63;5.25;;;;;;;3.17;60.52;100912.59;5058713;28;20432;-63
2022/02/13 08:04:56;;;;;;;10.45;4.65;;;;;;;3.46;59.96;100897.19;5068983;28;20448;-63
2022/02/13 08:07:25;;;;;;;8.30;3.63;;;;;;;3.55;60.22;100907.69;5076047;28;20451;-63
2022/02/13 08:09:54;;;;;;;7.22;3.00;;;;;;;3.62;59.14;100899.66;5077157;28;20036;-64
2022/02/13 08:12:25;;;;;;;4.20;1.80;;;;;;;3.78;58.61;100901.19;5077456;28;20036;-63
2022/02/13 08:14:54;;;;;;;5.03;2.50;;;;;;;3.94;57.80;100901.09;5068325;28;20048;-63
2022/02/13 08:17:23;;;;;;;3.58;2.08;;;;;;;4.03;57.94;100902.38;5048199;28;20458;-64
2022/02/13 08:19:53;;;;;;;4.70;2.13;;;;;;;4.20;57.57;100898.06;5065621;28;20037;-64
2022/02/13 08:22:22;;;;;;;4.47;2.25;;;;;;;4.26;56.83;100897.47;5063564;28;20041;-63
2022/02/13 08:24:51;;;;;;;5.73;2.33;;;;;;;4.15;56.60;100891.09;5057134;28;20048;-63
2022/02/13 08:27:20;;;;;;;5.05;2.22;;;;;;;4.33;56.24;100884.31;5057485;28;20286;-63
2022/02/13 08:29:51;;;;;;;5.00;1.85;;;;;;;4.35;55.69;100891.16;5057025;28;20037;-68
2022/02/13 08:32:23;;;;;;;5.75;2.35;;;;;;;4.27;55.29;100889.13;5056441;28;20474;-66
2022/02/13 08:34:54;;;;;;;5.60;2.13;;;;;;;4.37;55.78;100881.09;5075915;28;20074;-66
2022/02/13 08:37:23;;;;;;;6.25;2.40;;;;;;;4.69;55.66;100880.81;5076723;28;20106;-66
2022/02/13 08:39:52;;;;;;;4.38;1.92;;;;;;;4.83;53.98;100879.72;5075412;28;20445;-66
2022/02/13 08:42:21;;;;;;;4.10;1.85;;;;;;;4.92;53.65;100880.09;5075855;28;20071;-66
2022/02/13 08:44:50;;;;;;;5.15;2.15;;;;;;;4.92;52.22;100874.19;5071992;28;20035;-66
2022/02/13 08:47:19;;;;;;;4.73;2.20;;;;;;;4.73;52.28;100875.97;5038685;28;20049;-66
2022/02/13 08:49:49;;;;;;;3.72;1.65;;;;;;;4.79;51.78;100872.81;5057443;28;20041;-66
2022/02/13 08:52:20;;;;;;;5.00;2.47;;;;;;;4.90;50.67;100871.59;5076100;28;20040;-66
2022/02/13 08:54:49;;;;;;;5.85;2.08;;;;;;;4.98;50.63;100865.19;5075446;28;20082;-66
2022/02/13 08:57:18;;;;;;;3.70;1.97;;;;;;;5.16;50.35;100860.84;5076424;28;20051;-66
2022/02/13 08:59:47;;;;;;;4.83;2.20;;;;;;;5.22;49.48;100865.31;5076688;28;20679;-66
2022/02/13 09:02:18;;;;;;;6.03;2.33;;;;;;;5.35;49.91;100848.09;5075510;28;20417;-66
2022/02/13 09:04:47;;;;;;;3.72;1.67;;;;;;;5.24;49.45;100849.38;5076724;28;20044;-65
2022/02/13 09:07:19;;;;;;;4.35;1.95;;;;;;;5.30;49.19;100853.81;5077247;28;20048;-66
2022/02/13 09:09:48;;;;;;;4.50;2.05;;;;;;;5.34;49.14;100854.00;5076941;28;20485;-67
2022/02/13 09:12:19;;;;;;;;;;;;;;;5.51;48.91;100844.50;5076927;28;20049;-66
2022/02/13 09:14:48;;;;;;;5.05;2.17;;;;;;;5.45;48.35;100843.44;5078393;28;19921;-66
2022/02/13 09:17:18;;;;;;;5.70;2.22;;;;;;;5.40;48.08;100851.69;5077716;28;20407;-66
2022/02/13 09:19:47;;;;;;;3.42;1.67;;;;;;;5.32;47.88;100845.50;5076654;28;20065;-67
2022/02/13 09:22:16;;;;;;;5.10;2.35;;;;;;;5.35;48.45;100848.09;5059336;28;20036;-67
2022/02/13 09:24:47;;;;;;;4.10;2.00;;;;;;;5.42;48.31;100842.47;5077218;28;20067;-67
2022/02/13 11:55:28;;;;;;;3.67;2.13;;;;;;;7.80;41.00;100640.56;5131942;27;20706;-74
2022/02/13 11:57:59;;;;;;;5.28;2.28;;;;;;;7.88;40.49;100639.06;5132004;27;20126;-74
2022/02/13 12:00:34;;;;;;;4.72;2.15;;;;;;;7.97;40.50;100631.66;5130704;28;20088;-74
2022/02/13 12:03:20;;;;;;;3.30;2.13;;;;;;;8.09;39.86;100634.53;5131808;27;20532;-75
2022/02/13 12:06:22;;;;;;;3.47;1.73;;;;;;;7.98;39.31;100627.47;5112906;28;20123;-75
2022/02/13 12:08:52;;;;;;;2.95;1.70;;;;;;;8.16;39.84;100627.06;5126559;28;20495;-75
2022/02/13 12:11:31;;;;;;;4.38;1.80;;;;;;;8.25;39.54;100624.72;5131692;27;20047;-75
2022/02/13 12:14:11;;;;;;;3.87;1.80;;;;;;;8.36;39.39;100615.69;5131699;27;20488;-75
2022/02/13 12:16:40;;;;;;;4.10;2.05;;;;;;;8.26;38.57;100618.78;5131855;27;20442;-74
2022/02/13 12:19:09;;;;;;;4.03;1.73;;;;;;;8.16;38.15;100612.63;5131624;27;20043;-74
2022/02/13 12:21:38;;;;;;;4.85;1.90;;;;;;;8.28;37.96;100594.31;5131706;27;20464;-74
2022/02/13 12:24:10;;;;;;;4.03;1.67;;;;;;;8.35;38.62;100598.72;5131423;27;20035;-75
2022/02/13 12:26:41;;;;;;;3.38;1.92;;;;;;;8.43;37.70;100587.00;5130599;28;20113;-75
2022/02/13 12:29:13;;;;;;;4.43;2.25;;;;;;;8.38;37.60;100588.59;5130464;28;20051;-74
2022/02/13 12:31:42;;;;;;;3.72;1.98;;;;;;;8.04;37.48;100567.44;5131364;27;20130;-74
2022/02/13 12:34:11;;;;;;;3.00;1.57;;;;;;;8.04;36.75;100564.03;5131147;27;20051;-74
2022/02/13 12:36:40;;;;;;;3.93;2.10;;;;;;;8.23;37.09;100562.81;5131236;27;20046;-74
2022/02/13 12:39:15;;;;;;;3.58;1.60;;;;;;;8.34;37.03;100566.47;5113178;28;20311;-74
2022/02/13 12:41:53;;;;;;;4.40;1.90;;;;;;;8.08;34.84;100558.22;5131176;27;20042;-74
2022/02/13 12:44:22;;;;;;;3.83;1.88;;;;;;;8.04;35.44;100547.09;5131095;27;20108;-75
2022/02/13 12:46:51;;;;;;;3.33;1.75;;;;;;;8.22;34.54;100540.72;5131034;27;20092;-75
2022/02/13 12:49:23;;;;;;;4.18;2.10;;;;;;;8.37;34.21;100539.44;5112734;28;20453;-75
2022/02/13 12:51:52;;;;;;;4.38;1.63;;;;;;;8.38;34.36;100522.47;5131201;27;20043;-75
2022/02/13 12:54:23;;;;;;;4.10;1.60;;;;;;;8.65;34.40;100540.88;5129088;27;20059;-75
2022/02/13 12:56:54;;;;;;;3.38;1.67;;;;;;;8.54;33.59;100524.53;5130763;27;20113;-75
2022/02/13 12:59:25;;;;;;;4.55;1.60;;;;;;;8.46;33.05;100518.41;5129740;28;20089;-75
2022/02/13 13:01:56;;;;;;;5.45;1.80;;;;;;;8.25;33.11;100521.31;5130751;27;20040;-74
2022/02/13 13:04:26;;;;;;;2.97;1.55;;;;;;;8.30;33.91;100529.09;5129719;28;20047;-75
2022/02/13 13:06:55;;;;;;;3.72;1.60;;;;;;;8.53;33.57;100515.16;5115030;28;20043;-75
2022/02/13 13:09:24;;;;;;;3.00;1.60;;;;;;;8.85;32.53;100506.50;5116255;28;20047;-75
2022/02/13 13:11:55;;;;;;;7.30;2.97;;;;;;;8.60;32.18;100505.16;5116797;28;20510;-74
2022/02/13 13:14:25;;;;;;;2.88;1.30;;;;;;;8.40;31.80;100510.63;5115870;28;20051;-74
2022/02/13 13:17:05;;;;;;;4.32;1.50;;;;;;;8.26;31.74;100496.72;5115872;28;20092;-75
2022/02/13 13:19:34;;;;;;;3.65;1.70;;;;;;;8.06;31.68;100498.88;5116805;27;20418;-74
2022/02/13 13:22:17;;;;;;;2.55;1.40;;;;;;;8.08;32.63;100500.63;5116646;28;20047;-74
2022/02/13 13:24:48;;;;;;;3.38;1.17;;;;;;;8.18;33.04;100493.19;5116723;28;20070;-74
2022/02/13 13:27:24;;;;;;;4.97;1.60;;;;;;;8.52;32.50;100498.16;5116573;28;20071;-75
2022/02/13 13:29:53;;;;;;;4.00;1.70;;;;;;;8.59;31.82;100500.03;5116629;28;20043;-74
2022/02/13 13:32:22;;;;;;;4.07;1.92;;;;;;;8.61;31.58;100491.56;5116405;28;20051;-75
2022/02/13 13:34:54;;;;;;;5.47;1.60;;;;;;;8.41;31.64;100492.00;5115449;28;20462;-75
2022/02/13 13:37:27;;;;;;;3.35;1.60;;;;;;;8.34;32.31;100487.63;5115552;28;20052;-75
2022/02/13 13:40:05;;;;;;;2.95;1.40;;;;;;;8.38;31.87;100481.75;5116415;28;20097;-75
2022/02/13 13:42:37;;;;;;;3.25;1.33;;;;;;;8.43;32.70;100475.09;5116374;28;20051;-74
2022/02/13 13:45:08;;;;;;;3.40;1.40;;;;;;;8.27;33.69;100473.94;5116244;28;20051;-75
2022/02/13 13:47:41;;;;;;;3.53;1.42;;;;;;;8.25;33.08;100474.69;5099280;28;20505;-74
2022/02/13 13:50:12;;;;;;;1.90;1.17;;;;;;;8.36;34.01;100473.25;5132252;27;20075;-74
2022/02/13 13:52:44;;;;;;;4.10;1.58;;;;;;;8.42;34.96;100465.75;5098228;28;20044;-75
2022/02/13 13:55:12;;;;;;;;;;;;;;;8.26;34.00;100463.69;5116201;28;20048;-74
2022/02/13 13:57:44;;;;;;;3.78;1.70;;;;;;;8.28;34.97;100451.91;5115986;27;19989;-75
2022/02/13 14:00:15;;;;;;;3.80;1.55;;;;;;;8.24;34.56;100457.69;5116402;28;20070;-74
2022/02/13 14:02:49;;;;;;;3.65;1.52;;;;;;;8.08;34.29;100457.41;5115956;28;20047;-74
2022/02/13 14:05:20;;;;;;;4.07;1.70;;;;;;;7.90;35.70;100436.66;5115884;28;20153;-75
2022/02/13 14:07:50;;;;;;;3.45;1.60;;;;;;;7.96;35.82;100441.00;5115861;28;20055;-75
2022/02/13 14:10:20;;;;;;;1.98;1.20;;;;;;;8.04;35.83;100450.50;5115758;28;20058;-74
2022/02/13 14:12:52;;;;;;;3.08;1.77;;;;;;;7.89;36.91;100440.00;5116360;28;20433;-74
2022/02/13 14:15:22;;;;;;;4.03;1.60;;;;;;;7.91;36.49;100438.38;5115759;28;20032;-75
2022/02/13 14:17:51;;;;;;;;;;;;;;;7.85;36.38;100435.69;5115010;28;20516;-75